sensor_id;sensor_type;location;lat;lon;timestamp;P1;durP1;ratioP1;P2;durP2;ratioP2
42600;SDS011;28229;48.856;9.088;2023-02-28T00:00:21;2.47;;;2.27;;
42600;SDS011;28229;48.856;9.088;2023-02-28T00:02:48;5.90;;;2.50;;
42600;SDS011;28229;48.856;9.088;2023-02-28T00:05:16;2.93;;;2.53;;
42600;SDS011;28229;48.856;9.088;2023-02-28T00:07:44;4.93;;;2.40;;
42600;SDS011;28229;48.856;9.088;2023-02-28T00:10:12;3.00;;;2.47;;
42600;SDS011;28229;48.856;9.088;2023-02-28T00:12:40;4.20;;;2.67;;
42600;SDS011;28229;48.856;9.088;2023-02-28T00:15:09;4.40;;;2.93;;
42600;SDS011;28229;48.856;9.088;2023-02-28T00:17:36;4.67;;;2.67;;
42600;SDS011;28229;48.856;9.088;2023-02-28T00:20:03;4.30;;;2.53;;
42600;SDS011;28229;48.856;9.088;2023-02-28T00:22:36;3.60;;;2.87;;
42600;SDS011;28229;48.856;9.088;2023-02-28T00:25:04;4.73;;;3.00;;
42600;SDS011;28229;48.856;9.088;2023-02-28T00:27:33;3.13;;;2.83;;
42600;SDS011;28229;48.856;9.088;2023-02-28T00:30:00;3.70;;;2.73;;
42600;SDS011;28229;48.856;9.088;2023-02-28T00:32:26;3.93;;;3.10;;
42600;SDS011;28229;48.856;9.088;2023-02-28T00:34:53;3.93;;;2.83;;
42600;SDS011;28229;48.856;9.088;2023-02-28T00:37:19;5.37;;;3.03;;
42600;SDS011;28229;48.856;9.088;2023-02-28T00:39:45;3.57;;;3.03;;
42600;SDS011;28229;48.856;9.088;2023-02-28T00:42:11;3.13;;;2.83;;
42600;SDS011;28229;48.856;9.088;2023-02-28T00:44:37;3.30;;;3.00;;
42600;SDS011;28229;48.856;9.088;2023-02-28T00:47:03;4.37;;;3.00;;
42600;SDS011;28229;48.856;9.088;2023-02-28T00:49:30;4.23;;;2.80;;
42600;SDS011;28229;48.856;9.088;2023-02-28T00:51:56;3.40;;;2.80;;
42600;SDS011;28229;48.856;9.088;2023-02-28T00:54:23;4.37;;;2.87;;
42600;SDS011;28229;48.856;9.088;2023-02-28T00:56:50;3.77;;;3.30;;
42600;SDS011;28229;48.856;9.088;2023-02-28T00:59:16;5.60;;;3.10;;
42600;SDS011;28229;48.856;9.088;2023-02-28T01:01:44;3.23;;;2.93;;
42600;SDS011;28229;48.856;9.088;2023-02-28T01:04:13;4.67;;;3.20;;
42600;SDS011;28229;48.856;9.088;2023-02-28T01:06:40;4.63;;;3.30;;
42600;SDS011;28229;48.856;9.088;2023-02-28T01:09:09;4.77;;;3.13;;
42600;SDS011;28229;48.856;9.088;2023-02-28T01:11:36;3.47;;;3.17;;
42600;SDS011;28229;48.856;9.088;2023-02-28T01:14:03;3.67;;;3.27;;
42600;SDS011;28229;48.856;9.088;2023-02-28T01:16:30;3.47;;;3.17;;
42600;SDS011;28229;48.856;9.088;2023-02-28T01:18:56;5.40;;;3.10;;
42600;SDS011;28229;48.856;9.088;2023-02-28T01:21:23;3.73;;;3.20;;
42600;SDS011;28229;48.856;9.088;2023-02-28T01:23:50;5.80;;;3.20;;
42600;SDS011;28229;48.856;9.088;2023-02-28T01:26:18;3.27;;;2.97;;
42600;SDS011;28229;48.856;9.088;2023-02-28T01:28:48;7.50;;;4.60;;
42600;SDS011;28229;48.856;9.088;2023-02-28T01:31:15;14.67;;;6.90;;
42600;SDS011;28229;48.856;9.088;2023-02-28T01:33:42;15.90;;;7.07;;
42600;SDS011;28229;48.856;9.088;2023-02-28T01:36:26;18.07;;;8.23;;
42600;SDS011;28229;48.856;9.088;2023-02-28T01:38:52;12.77;;;7.00;;
42600;SDS011;28229;48.856;9.088;2023-02-28T01:41:27;10.80;;;6.70;;
42600;SDS011;28229;48.856;9.088;2023-02-28T01:43:59;7.13;;;5.40;;
42600;SDS011;28229;48.856;9.088;2023-02-28T01:46:34;5.63;;;3.90;;
42600;SDS011;28229;48.856;9.088;2023-02-28T01:51:38;6.37;;;4.80;;
42600;SDS011;28229;48.856;9.088;2023-02-28T01:54:13;6.80;;;4.60;;
42600;SDS011;28229;48.856;9.088;2023-02-28T01:56:55;5.80;;;4.20;;
42600;SDS011;28229;48.856;9.088;2023-02-28T01:59:33;4.60;;;4.00;;
42600;SDS011;28229;48.856;9.088;2023-02-28T02:02:05;4.40;;;4.00;;
42600;SDS011;28229;48.856;9.088;2023-02-28T02:04:34;7.03;;;4.13;;
42600;SDS011;28229;48.856;9.088;2023-02-28T02:07:08;6.10;;;3.97;;
42600;SDS011;28229;48.856;9.088;2023-02-28T02:09:35;4.57;;;4.10;;
42600;SDS011;28229;48.856;9.088;2023-02-28T02:12:05;3.77;;;3.43;;
42600;SDS011;28229;48.856;9.088;2023-02-28T02:17:42;4.43;;;3.63;;
42600;SDS011;28229;48.856;9.088;2023-02-28T02:25:53;4.33;;;3.73;;
42600;SDS011;28229;48.856;9.088;2023-02-28T02:29:08;4.20;;;3.40;;
42600;SDS011;28229;48.856;9.088;2023-02-28T02:34:42;5.63;;;3.50;;
42600;SDS011;28229;48.856;9.088;2023-02-28T02:37:15;4.97;;;3.80;;
42600;SDS011;28229;48.856;9.088;2023-02-28T02:40:00;4.30;;;3.70;;
42600;SDS011;28229;48.856;9.088;2023-02-28T02:42:45;4.97;;;3.70;;
42600;SDS011;28229;48.856;9.088;2023-02-28T02:45:19;4.57;;;3.63;;
42600;SDS011;28229;48.856;9.088;2023-02-28T02:47:51;4.63;;;3.70;;
42600;SDS011;28229;48.856;9.088;2023-02-28T02:50:22;6.70;;;4.10;;
42600;SDS011;28229;48.856;9.088;2023-02-28T02:52:53;5.23;;;3.67;;
42600;SDS011;28229;48.856;9.088;2023-02-28T02:55:23;5.53;;;4.37;;
42600;SDS011;28229;48.856;9.088;2023-02-28T02:57:54;4.60;;;4.10;;
42600;SDS011;28229;48.856;9.088;2023-02-28T03:00:27;4.70;;;4.07;;
42600;SDS011;28229;48.856;9.088;2023-02-28T03:03:00;6.30;;;4.83;;
42600;SDS011;28229;48.856;9.088;2023-02-28T03:05:34;5.37;;;4.87;;
42600;SDS011;28229;48.856;9.088;2023-02-28T03:08:07;6.10;;;4.23;;
42600;SDS011;28229;48.856;9.088;2023-02-28T03:10:35;4.57;;;4.10;;
42600;SDS011;28229;48.856;9.088;2023-02-28T03:21:33;7.13;;;4.57;;
42600;SDS011;28229;48.856;9.088;2023-02-28T03:24:19;6.30;;;4.33;;
42600;SDS011;28229;48.856;9.088;2023-02-28T03:27:08;4.77;;;4.10;;
42600;SDS011;28229;48.856;9.088;2023-02-28T03:29:57;6.67;;;4.20;;
42600;SDS011;28229;48.856;9.088;2023-02-28T03:32:35;5.20;;;4.30;;
42600;SDS011;28229;48.856;9.088;2023-02-28T03:37:37;6.37;;;4.63;;
42600;SDS011;28229;48.856;9.088;2023-02-28T03:42:46;4.27;;;3.60;;
42600;SDS011;28229;48.856;9.088;2023-02-28T03:45:17;5.20;;;4.20;;
42600;SDS011;28229;48.856;9.088;2023-02-28T03:47:51;4.80;;;4.27;;
42600;SDS011;28229;48.856;9.088;2023-02-28T03:50:38;4.33;;;3.83;;
42600;SDS011;28229;48.856;9.088;2023-02-28T03:53:19;6.63;;;4.83;;
42600;SDS011;28229;48.856;9.088;2023-02-28T03:55:57;5.43;;;4.20;;
42600;SDS011;28229;48.856;9.088;2023-02-28T03:58:32;5.47;;;4.70;;
42600;SDS011;28229;48.856;9.088;2023-02-28T04:01:09;5.33;;;4.77;;
42600;SDS011;28229;48.856;9.088;2023-02-28T04:03:37;8.00;;;5.10;;
42600;SDS011;28229;48.856;9.088;2023-02-28T04:06:05;5.97;;;5.37;;
42600;SDS011;28229;48.856;9.088;2023-02-28T04:08:34;6.57;;;5.53;;
42600;SDS011;28229;48.856;9.088;2023-02-28T04:11:04;6.13;;;5.53;;
42600;SDS011;28229;48.856;9.088;2023-02-28T04:13:38;6.43;;;5.50;;
42600;SDS011;28229;48.856;9.088;2023-02-28T04:16:08;9.07;;;6.10;;
42600;SDS011;28229;48.856;9.088;2023-02-28T04:18:38;7.13;;;5.53;;
42600;SDS011;28229;48.856;9.088;2023-02-28T04:21:05;5.70;;;4.83;;
42600;SDS011;28229;48.856;9.088;2023-02-28T04:23:31;6.00;;;4.93;;
42600;SDS011;28229;48.856;9.088;2023-02-28T04:25:58;7.17;;;4.77;;
42600;SDS011;28229;48.856;9.088;2023-02-28T04:28:24;6.27;;;4.87;;
42600;SDS011;28229;48.856;9.088;2023-02-28T04:30:54;5.97;;;4.90;;
42600;SDS011;28229;48.856;9.088;2023-02-28T04:33:22;5.63;;;4.93;;
42600;SDS011;28229;48.856;9.088;2023-02-28T04:35:48;6.70;;;4.50;;
42600;SDS011;28229;48.856;9.088;2023-02-28T04:38:23;7.80;;;4.87;;
42600;SDS011;28229;48.856;9.088;2023-02-28T04:40:49;5.10;;;4.57;;
42600;SDS011;28229;48.856;9.088;2023-02-28T04:43:15;5.13;;;4.40;;
42600;SDS011;28229;48.856;9.088;2023-02-28T04:45:41;7.40;;;5.13;;
42600;SDS011;28229;48.856;9.088;2023-02-28T04:48:08;6.50;;;5.50;;
42600;SDS011;28229;48.856;9.088;2023-02-28T04:50:34;6.53;;;5.33;;
42600;SDS011;28229;48.856;9.088;2023-02-28T04:53:00;6.70;;;5.13;;
42600;SDS011;28229;48.856;9.088;2023-02-28T04:55:26;5.70;;;4.53;;
42600;SDS011;28229;48.856;9.088;2023-02-28T04:57:52;6.47;;;4.93;;
42600;SDS011;28229;48.856;9.088;2023-02-28T05:00:19;6.33;;;5.00;;
42600;SDS011;28229;48.856;9.088;2023-02-28T05:02:45;5.23;;;4.60;;
42600;SDS011;28229;48.856;9.088;2023-02-28T05:05:11;7.67;;;5.07;;
42600;SDS011;28229;48.856;9.088;2023-02-28T05:07:44;6.67;;;4.50;;
42600;SDS011;28229;48.856;9.088;2023-02-28T05:10:10;6.67;;;5.17;;
42600;SDS011;28229;48.856;9.088;2023-02-28T05:12:37;6.30;;;5.07;;
42600;SDS011;28229;48.856;9.088;2023-02-28T05:15:04;7.67;;;5.10;;
42600;SDS011;28229;48.856;9.088;2023-02-28T05:17:31;6.40;;;4.97;;
42600;SDS011;28229;48.856;9.088;2023-02-28T05:19:57;7.93;;;5.30;;
42600;SDS011;28229;48.856;9.088;2023-02-28T05:22:23;6.77;;;4.77;;
42600;SDS011;28229;48.856;9.088;2023-02-28T05:24:49;6.50;;;4.70;;
42600;SDS011;28229;48.856;9.088;2023-02-28T05:27:15;6.57;;;5.20;;
42600;SDS011;28229;48.856;9.088;2023-02-28T05:29:41;6.37;;;5.30;;
42600;SDS011;28229;48.856;9.088;2023-02-28T05:32:09;7.50;;;5.37;;
42600;SDS011;28229;48.856;9.088;2023-02-28T05:34:39;5.43;;;4.90;;
42600;SDS011;28229;48.856;9.088;2023-02-28T05:37:05;6.50;;;4.90;;
42600;SDS011;28229;48.856;9.088;2023-02-28T05:39:34;7.57;;;5.33;;
42600;SDS011;28229;48.856;9.088;2023-02-28T05:42:00;6.73;;;5.33;;
42600;SDS011;28229;48.856;9.088;2023-02-28T05:44:26;6.87;;;5.40;;
42600;SDS011;28229;48.856;9.088;2023-02-28T05:46:52;7.13;;;5.07;;
42600;SDS011;28229;48.856;9.088;2023-02-28T05:49:21;6.87;;;5.50;;
42600;SDS011;28229;48.856;9.088;2023-02-28T05:51:49;6.67;;;5.33;;
42600;SDS011;28229;48.856;9.088;2023-02-28T05:54:16;6.40;;;5.00;;
42600;SDS011;28229;48.856;9.088;2023-02-28T05:56:42;5.27;;;4.63;;
42600;SDS011;28229;48.856;9.088;2023-02-28T05:59:14;6.87;;;4.97;;
42600;SDS011;28229;48.856;9.088;2023-02-28T06:01:41;7.03;;;5.30;;
42600;SDS011;28229;48.856;9.088;2023-02-28T06:04:14;7.00;;;5.67;;
42600;SDS011;28229;48.856;9.088;2023-02-28T06:06:45;8.00;;;5.67;;
42600;SDS011;28229;48.856;9.088;2023-02-28T06:09:12;7.67;;;5.77;;
42600;SDS011;28229;48.856;9.088;2023-02-28T06:11:38;6.30;;;5.37;;
42600;SDS011;28229;48.856;9.088;2023-02-28T06:14:05;6.67;;;5.77;;
42600;SDS011;28229;48.856;9.088;2023-02-28T06:16:32;7.23;;;5.43;;
42600;SDS011;28229;48.856;9.088;2023-02-28T06:19:01;7.03;;;5.27;;
42600;SDS011;28229;48.856;9.088;2023-02-28T06:21:28;6.23;;;5.13;;
42600;SDS011;28229;48.856;9.088;2023-02-28T06:23:56;7.23;;;5.53;;
42600;SDS011;28229;48.856;9.088;2023-02-28T06:26:25;7.10;;;5.23;;
42600;SDS011;28229;48.856;9.088;2023-02-28T06:28:51;7.73;;;5.67;;
42600;SDS011;28229;48.856;9.088;2023-02-28T06:31:18;8.90;;;5.50;;
42600;SDS011;28229;48.856;9.088;2023-02-28T06:33:45;6.80;;;5.00;;
42600;SDS011;28229;48.856;9.088;2023-02-28T06:36:12;7.83;;;5.80;;
42600;SDS011;28229;48.856;9.088;2023-02-28T06:38:43;10.60;;;6.93;;
42600;SDS011;28229;48.856;9.088;2023-02-28T06:41:09;12.70;;;7.27;;
42600;SDS011;28229;48.856;9.088;2023-02-28T06:43:39;13.17;;;7.20;;
42600;SDS011;28229;48.856;9.088;2023-02-28T06:46:07;23.47;;;10.23;;
42600;SDS011;28229;48.856;9.088;2023-02-28T06:48:36;20.90;;;11.27;;
42600;SDS011;28229;48.856;9.088;2023-02-28T06:51:20;14.30;;;8.27;;
42600;SDS011;28229;48.856;9.088;2023-02-28T06:53:48;10.53;;;7.17;;
42600;SDS011;28229;48.856;9.088;2023-02-28T06:56:15;8.83;;;7.10;;
42600;SDS011;28229;48.856;9.088;2023-02-28T06:58:45;9.73;;;7.00;;
42600;SDS011;28229;48.856;9.088;2023-02-28T07:01:13;13.63;;;8.77;;
42600;SDS011;28229;48.856;9.088;2023-02-28T07:03:40;11.80;;;8.20;;
42600;SDS011;28229;48.856;9.088;2023-02-28T07:06:07;10.93;;;7.60;;
42600;SDS011;28229;48.856;9.088;2023-02-28T07:08:34;10.60;;;7.90;;
42600;SDS011;28229;48.856;9.088;2023-02-28T07:11:01;9.77;;;7.83;;
42600;SDS011;28229;48.856;9.088;2023-02-28T07:13:29;9.70;;;6.83;;
42600;SDS011;28229;48.856;9.088;2023-02-28T07:15:56;8.13;;;6.97;;
42600;SDS011;28229;48.856;9.088;2023-02-28T07:18:23;8.87;;;6.13;;
42600;SDS011;28229;48.856;9.088;2023-02-28T07:20:49;6.90;;;5.83;;
42600;SDS011;28229;48.856;9.088;2023-02-28T07:23:16;8.20;;;6.03;;
42600;SDS011;28229;48.856;9.088;2023-02-28T07:25:42;9.27;;;6.90;;
42600;SDS011;28229;48.856;9.088;2023-02-28T07:28:09;7.73;;;6.27;;
42600;SDS011;28229;48.856;9.088;2023-02-28T07:30:35;7.83;;;5.53;;
42600;SDS011;28229;48.856;9.088;2023-02-28T07:33:03;9.53;;;6.17;;
42600;SDS011;28229;48.856;9.088;2023-02-28T07:35:30;13.30;;;7.43;;
42600;SDS011;28229;48.856;9.088;2023-02-28T07:37:57;9.37;;;7.03;;
42600;SDS011;28229;48.856;9.088;2023-02-28T07:40:24;13.67;;;6.93;;
42600;SDS011;28229;48.856;9.088;2023-02-28T07:42:59;9.70;;;6.83;;
42600;SDS011;28229;48.856;9.088;2023-02-28T07:45:29;10.43;;;7.83;;
42600;SDS011;28229;48.856;9.088;2023-02-28T07:47:57;9.40;;;7.00;;
42600;SDS011;28229;48.856;9.088;2023-02-28T07:50:23;9.93;;;6.87;;
42600;SDS011;28229;48.856;9.088;2023-02-28T07:52:49;8.50;;;6.60;;
42600;SDS011;28229;48.856;9.088;2023-02-28T07:55:16;10.57;;;7.50;;
42600;SDS011;28229;48.856;9.088;2023-02-28T07:57:42;12.40;;;8.27;;
42600;SDS011;28229;48.856;9.088;2023-02-28T08:00:09;9.07;;;6.87;;
42600;SDS011;28229;48.856;9.088;2023-02-28T08:02:39;11.57;;;6.80;;
42600;SDS011;28229;48.856;9.088;2023-02-28T08:05:06;7.70;;;6.10;;
42600;SDS011;28229;48.856;9.088;2023-02-28T08:07:32;8.33;;;6.47;;
42600;SDS011;28229;48.856;9.088;2023-02-28T08:10:01;8.43;;;6.20;;
42600;SDS011;28229;48.856;9.088;2023-02-28T08:12:29;9.10;;;6.40;;
42600;SDS011;28229;48.856;9.088;2023-02-28T08:14:55;10.47;;;7.20;;
42600;SDS011;28229;48.856;9.088;2023-02-28T08:17:23;9.53;;;6.63;;
42600;SDS011;28229;48.856;9.088;2023-02-28T08:19:50;9.60;;;6.53;;
42600;SDS011;28229;48.856;9.088;2023-02-28T08:22:18;10.33;;;6.60;;
42600;SDS011;28229;48.856;9.088;2023-02-28T08:24:45;10.43;;;6.80;;
42600;SDS011;28229;48.856;9.088;2023-02-28T08:27:11;11.13;;;6.23;;
42600;SDS011;28229;48.856;9.088;2023-02-28T08:29:38;9.50;;;6.80;;
42600;SDS011;28229;48.856;9.088;2023-02-28T08:32:05;10.50;;;7.07;;
42600;SDS011;28229;48.856;9.088;2023-02-28T08:34:32;9.27;;;6.97;;
42600;SDS011;28229;48.856;9.088;2023-02-28T08:36:58;10.43;;;7.13;;
42600;SDS011;28229;48.856;9.088;2023-02-28T08:39:24;8.80;;;7.40;;
42600;SDS011;28229;48.856;9.088;2023-02-28T08:41:53;12.87;;;8.67;;
42600;SDS011;28229;48.856;9.088;2023-02-28T08:44:19;13.93;;;8.73;;
42600;SDS011;28229;48.856;9.088;2023-02-28T08:46:46;13.70;;;8.93;;
42600;SDS011;28229;48.856;9.088;2023-02-28T08:49:19;11.73;;;8.43;;
42600;SDS011;28229;48.856;9.088;2023-02-28T08:51:48;9.77;;;7.47;;
42600;SDS011;28229;48.856;9.088;2023-02-28T08:54:14;8.30;;;6.87;;
42600;SDS011;28229;48.856;9.088;2023-02-28T08:56:45;9.57;;;7.47;;
42600;SDS011;28229;48.856;9.088;2023-02-28T08:59:13;11.47;;;7.97;;
42600;SDS011;28229;48.856;9.088;2023-02-28T09:01:40;11.67;;;8.70;;
42600;SDS011;28229;48.856;9.088;2023-02-28T09:04:15;10.47;;;7.93;;
42600;SDS011;28229;48.856;9.088;2023-02-28T09:06:41;12.43;;;8.90;;
42600;SDS011;28229;48.856;9.088;2023-02-28T09:09:07;17.37;;;11.20;;
42600;SDS011;28229;48.856;9.088;2023-02-28T09:11:35;12.93;;;9.43;;
42600;SDS011;28229;48.856;9.088;2023-02-28T09:14:01;12.93;;;8.67;;
42600;SDS011;28229;48.856;9.088;2023-02-28T09:16:30;10.47;;;8.33;;
42600;SDS011;28229;48.856;9.088;2023-02-28T09:18:57;10.90;;;7.90;;
42600;SDS011;28229;48.856;9.088;2023-02-28T09:21:23;10.97;;;8.13;;
42600;SDS011;28229;48.856;9.088;2023-02-28T09:23:50;10.20;;;7.53;;
42600;SDS011;28229;48.856;9.088;2023-02-28T09:26:17;9.97;;;7.47;;
42600;SDS011;28229;48.856;9.088;2023-02-28T09:28:45;9.60;;;7.40;;
42600;SDS011;28229;48.856;9.088;2023-02-28T09:31:12;9.40;;;7.17;;
42600;SDS011;28229;48.856;9.088;2023-02-28T09:33:41;10.80;;;7.50;;
42600;SDS011;28229;48.856;9.088;2023-02-28T09:36:07;12.30;;;8.07;;
42600;SDS011;28229;48.856;9.088;2023-02-28T09:38:33;10.57;;;7.40;;
42600;SDS011;28229;48.856;9.088;2023-02-28T09:41:01;9.20;;;7.10;;
42600;SDS011;28229;48.856;9.088;2023-02-28T09:43:35;10.83;;;8.30;;
42600;SDS011;28229;48.856;9.088;2023-02-28T09:46:11;11.53;;;8.93;;
42600;SDS011;28229;48.856;9.088;2023-02-28T09:48:47;11.27;;;7.40;;
42600;SDS011;28229;48.856;9.088;2023-02-28T09:51:28;10.13;;;7.50;;
42600;SDS011;28229;48.856;9.088;2023-02-28T09:53:56;11.27;;;8.47;;
42600;SDS011;28229;48.856;9.088;2023-02-28T09:56:28;11.07;;;8.50;;
42600;SDS011;28229;48.856;9.088;2023-02-28T09:59:03;10.17;;;8.10;;
42600;SDS011;28229;48.856;9.088;2023-02-28T10:01:37;10.13;;;8.50;;
42600;SDS011;28229;48.856;9.088;2023-02-28T10:07:00;12.23;;;7.73;;
42600;SDS011;28229;48.856;9.088;2023-02-28T10:09:32;14.43;;;7.93;;
42600;SDS011;28229;48.856;9.088;2023-02-28T10:12:04;11.00;;;7.57;;
42600;SDS011;28229;48.856;9.088;2023-02-28T10:14:32;14.83;;;7.70;;
42600;SDS011;28229;48.856;9.088;2023-02-28T10:19:55;10.83;;;7.83;;
42600;SDS011;28229;48.856;9.088;2023-02-28T10:22:34;11.13;;;7.67;;
42600;SDS011;28229;48.856;9.088;2023-02-28T10:25:17;9.13;;;7.40;;
42600;SDS011;28229;48.856;9.088;2023-02-28T10:27:45;10.43;;;7.67;;
42600;SDS011;28229;48.856;9.088;2023-02-28T10:30:11;9.17;;;7.33;;
42600;SDS011;28229;48.856;9.088;2023-02-28T10:32:51;9.90;;;7.57;;
42600;SDS011;28229;48.856;9.088;2023-02-28T10:35:22;8.77;;;7.50;;
42600;SDS011;28229;48.856;9.088;2023-02-28T10:37:53;9.23;;;7.77;;
42600;SDS011;28229;48.856;9.088;2023-02-28T10:45:32;9.77;;;8.17;;
42600;SDS011;28229;48.856;9.088;2023-02-28T10:58:24;9.60;;;7.70;;
42600;SDS011;28229;48.856;9.088;2023-02-28T11:00:52;10.40;;;7.57;;
42600;SDS011;28229;48.856;9.088;2023-02-28T11:03:28;9.77;;;8.00;;
42600;SDS011;28229;48.856;9.088;2023-02-28T11:05:57;12.33;;;8.10;;
42600;SDS011;28229;48.856;9.088;2023-02-28T11:08:23;8.97;;;7.73;;
42600;SDS011;28229;48.856;9.088;2023-02-28T11:10:54;10.43;;;7.67;;
42600;SDS011;28229;48.856;9.088;2023-02-28T11:13:31;10.53;;;7.57;;
42600;SDS011;28229;48.856;9.088;2023-02-28T11:16:07;8.43;;;7.50;;
42600;SDS011;28229;48.856;9.088;2023-02-28T11:21:16;9.73;;;7.50;;
42600;SDS011;28229;48.856;9.088;2023-02-28T11:23:46;10.20;;;7.67;;
42600;SDS011;28229;48.856;9.088;2023-02-28T11:26:15;9.00;;;7.40;;
42600;SDS011;28229;48.856;9.088;2023-02-28T11:28:43;8.47;;;7.53;;
42600;SDS011;28229;48.856;9.088;2023-02-28T11:36:21;10.53;;;7.87;;
42600;SDS011;28229;48.856;9.088;2023-02-28T11:38:53;10.00;;;7.90;;
42600;SDS011;28229;48.856;9.088;2023-02-28T11:46:44;14.37;;;9.17;;
42600;SDS011;28229;48.856;9.088;2023-02-28T11:55:24;9.53;;;7.70;;
42600;SDS011;28229;48.856;9.088;2023-02-28T12:06:54;8.27;;;7.40;;
42600;SDS011;28229;48.856;9.088;2023-02-28T12:20:55;7.53;;;6.80;;
42600;SDS011;28229;48.856;9.088;2023-02-28T12:28:54;7.90;;;7.10;;
42600;SDS011;28229;48.856;9.088;2023-02-28T12:31:29;7.53;;;6.83;;
42600;SDS011;28229;48.856;9.088;2023-02-28T12:34:02;8.27;;;7.20;;
42600;SDS011;28229;48.856;9.088;2023-02-28T12:36:32;7.37;;;6.67;;
42600;SDS011;28229;48.856;9.088;2023-02-28T12:39:00;7.83;;;7.00;;
42600;SDS011;28229;48.856;9.088;2023-02-28T12:41:48;7.80;;;7.00;;
42600;SDS011;28229;48.856;9.088;2023-02-28T12:44:30;8.83;;;7.40;;
42600;SDS011;28229;48.856;9.088;2023-02-28T12:47:04;8.07;;;6.97;;
42600;SDS011;28229;48.856;9.088;2023-02-28T12:49:39;7.60;;;6.90;;
42600;SDS011;28229;48.856;9.088;2023-02-28T12:52:12;10.63;;;7.10;;
42600;SDS011;28229;48.856;9.088;2023-02-28T13:00:13;9.20;;;7.00;;
42600;SDS011;28229;48.856;9.088;2023-02-28T13:02:50;13.40;;;9.77;;
42600;SDS011;28229;48.856;9.088;2023-02-28T13:10:48;7.43;;;6.70;;
42600;SDS011;28229;48.856;9.088;2023-02-28T13:13:21;9.00;;;6.90;;
42600;SDS011;28229;48.856;9.088;2023-02-28T13:16:07;7.50;;;6.60;;
42600;SDS011;28229;48.856;9.088;2023-02-28T13:21:07;9.67;;;7.47;;
42600;SDS011;28229;48.856;9.088;2023-02-28T13:26:13;7.23;;;6.30;;
42600;SDS011;28229;48.856;9.088;2023-02-28T13:31:14;7.67;;;6.70;;
42600;SDS011;28229;48.856;9.088;2023-02-28T13:38:49;8.90;;;7.57;;
42600;SDS011;28229;48.856;9.088;2023-02-28T13:54:39;7.83;;;7.03;;
42600;SDS011;28229;48.856;9.088;2023-02-28T13:57:26;7.47;;;6.73;;
42600;SDS011;28229;48.856;9.088;2023-02-28T14:00:02;7.60;;;6.80;;
42600;SDS011;28229;48.856;9.088;2023-02-28T14:05:34;7.87;;;7.00;;
42600;SDS011;28229;48.856;9.088;2023-02-28T14:08:20;8.63;;;6.80;;
42600;SDS011;28229;48.856;9.088;2023-02-28T14:10:50;8.30;;;6.90;;
42600;SDS011;28229;48.856;9.088;2023-02-28T14:13:41;7.67;;;6.70;;
42600;SDS011;28229;48.856;9.088;2023-02-28T14:16:13;7.70;;;6.90;;
42600;SDS011;28229;48.856;9.088;2023-02-28T14:18:51;9.70;;;7.33;;
42600;SDS011;28229;48.856;9.088;2023-02-28T14:21:27;8.53;;;7.63;;
42600;SDS011;28229;48.856;9.088;2023-02-28T14:24:20;9.17;;;7.23;;
42600;SDS011;28229;48.856;9.088;2023-02-28T14:30:10;9.03;;;7.90;;
42600;SDS011;28229;48.856;9.088;2023-02-28T14:35:58;8.93;;;7.50;;
42600;SDS011;28229;48.856;9.088;2023-02-28T14:38:32;9.07;;;7.53;;
42600;SDS011;28229;48.856;9.088;2023-02-28T14:41:03;9.03;;;7.60;;
42600;SDS011;28229;48.856;9.088;2023-02-28T14:43:46;7.70;;;6.90;;
42600;SDS011;28229;48.856;9.088;2023-02-28T14:46:14;8.77;;;7.67;;
42600;SDS011;28229;48.856;9.088;2023-02-28T14:48:44;8.87;;;7.63;;
42600;SDS011;28229;48.856;9.088;2023-02-28T14:51:17;9.73;;;7.80;;
42600;SDS011;28229;48.856;9.088;2023-02-28T14:53:45;9.00;;;7.37;;
42600;SDS011;28229;48.856;9.088;2023-02-28T14:56:22;9.17;;;7.00;;
42600;SDS011;28229;48.856;9.088;2023-02-28T14:58:52;8.87;;;7.97;;
42600;SDS011;28229;48.856;9.088;2023-02-28T15:01:23;10.30;;;9.20;;
42600;SDS011;28229;48.856;9.088;2023-02-28T15:03:58;8.80;;;7.83;;
42600;SDS011;28229;48.856;9.088;2023-02-28T15:06:29;8.90;;;8.00;;
42600;SDS011;28229;48.856;9.088;2023-02-28T15:09:09;10.73;;;7.83;;
42600;SDS011;28229;48.856;9.088;2023-02-28T15:11:48;9.97;;;7.57;;
42600;SDS011;28229;48.856;9.088;2023-02-28T15:14:19;9.60;;;8.60;;
42600;SDS011;28229;48.856;9.088;2023-02-28T15:16:52;9.17;;;8.03;;
42600;SDS011;28229;48.856;9.088;2023-02-28T15:19:26;9.67;;;8.10;;
42600;SDS011;28229;48.856;9.088;2023-02-28T15:21:58;10.40;;;8.37;;
42600;SDS011;28229;48.856;9.088;2023-02-28T15:24:38;9.33;;;8.30;;
42600;SDS011;28229;48.856;9.088;2023-02-28T15:27:12;10.67;;;8.43;;
42600;SDS011;28229;48.856;9.088;2023-02-28T15:29:45;17.40;;;11.47;;
42600;SDS011;28229;48.856;9.088;2023-02-28T15:32:27;10.00;;;8.80;;
42600;SDS011;28229;48.856;9.088;2023-02-28T15:34:55;10.07;;;8.97;;
42600;SDS011;28229;48.856;9.088;2023-02-28T15:40:44;12.70;;;9.07;;
42600;SDS011;28229;48.856;9.088;2023-02-28T15:43:13;10.60;;;8.60;;
42600;SDS011;28229;48.856;9.088;2023-02-28T15:45:47;11.80;;;8.90;;
42600;SDS011;28229;48.856;9.088;2023-02-28T15:48:23;14.00;;;9.77;;
42600;SDS011;28229;48.856;9.088;2023-02-28T15:50:51;12.70;;;9.00;;
42600;SDS011;28229;48.856;9.088;2023-02-28T15:53:21;11.90;;;8.73;;
42600;SDS011;28229;48.856;9.088;2023-02-28T15:55:55;14.43;;;9.20;;
42600;SDS011;28229;48.856;9.088;2023-02-28T15:58:28;17.37;;;10.27;;
42600;SDS011;28229;48.856;9.088;2023-02-28T16:04:03;11.90;;;9.10;;
42600;SDS011;28229;48.856;9.088;2023-02-28T16:06:41;12.23;;;9.07;;
42600;SDS011;28229;48.856;9.088;2023-02-28T16:09:09;12.87;;;9.00;;
42600;SDS011;28229;48.856;9.088;2023-02-28T16:11:42;10.40;;;8.07;;
42600;SDS011;28229;48.856;9.088;2023-02-28T16:14:15;23.23;;;14.37;;
42600;SDS011;28229;48.856;9.088;2023-02-28T16:16:48;13.30;;;9.37;;
42600;SDS011;28229;48.856;9.088;2023-02-28T16:19:23;15.30;;;10.40;;
42600;SDS011;28229;48.856;9.088;2023-02-28T16:21:50;16.03;;;10.17;;
42600;SDS011;28229;48.856;9.088;2023-02-28T16:24:16;14.87;;;10.03;;
42600;SDS011;28229;48.856;9.088;2023-02-28T16:26:44;18.27;;;11.40;;
42600;SDS011;28229;48.856;9.088;2023-02-28T16:29:16;19.60;;;11.07;;
42600;SDS011;28229;48.856;9.088;2023-02-28T16:31:49;19.67;;;11.57;;
42600;SDS011;28229;48.856;9.088;2023-02-28T16:34:15;19.17;;;11.20;;
42600;SDS011;28229;48.856;9.088;2023-02-28T16:36:41;15.33;;;10.57;;
42600;SDS011;28229;48.856;9.088;2023-02-28T16:39:07;16.97;;;10.97;;
42600;SDS011;28229;48.856;9.088;2023-02-28T16:41:33;15.70;;;10.60;;
42600;SDS011;28229;48.856;9.088;2023-02-28T16:44:00;15.03;;;10.00;;
42600;SDS011;28229;48.856;9.088;2023-02-28T16:46:35;16.03;;;10.43;;
42600;SDS011;28229;48.856;9.088;2023-02-28T16:49:02;16.03;;;10.43;;
42600;SDS011;28229;48.856;9.088;2023-02-28T16:51:28;12.80;;;9.57;;
42600;SDS011;28229;48.856;9.088;2023-02-28T16:53:54;15.30;;;10.63;;
42600;SDS011;28229;48.856;9.088;2023-02-28T16:56:21;21.33;;;12.63;;
42600;SDS011;28229;48.856;9.088;2023-02-28T16:58:49;16.27;;;10.90;;
42600;SDS011;28229;48.856;9.088;2023-02-28T17:01:17;15.37;;;10.73;;
42600;SDS011;28229;48.856;9.088;2023-02-28T17:03:50;18.20;;;11.60;;
42600;SDS011;28229;48.856;9.088;2023-02-28T17:06:20;19.80;;;11.70;;
42600;SDS011;28229;48.856;9.088;2023-02-28T17:08:50;16.80;;;12.37;;
42600;SDS011;28229;48.856;9.088;2023-02-28T17:11:17;15.40;;;11.03;;
42600;SDS011;28229;48.856;9.088;2023-02-28T17:13:44;14.30;;;10.37;;
42600;SDS011;28229;48.856;9.088;2023-02-28T17:16:20;14.93;;;11.20;;
42600;SDS011;28229;48.856;9.088;2023-02-28T17:18:47;14.23;;;10.63;;
42600;SDS011;28229;48.856;9.088;2023-02-28T17:21:17;14.20;;;10.57;;
42600;SDS011;28229;48.856;9.088;2023-02-28T17:23:43;15.23;;;10.57;;
42600;SDS011;28229;48.856;9.088;2023-02-28T17:26:12;16.93;;;12.10;;
42600;SDS011;28229;48.856;9.088;2023-02-28T17:28:44;19.60;;;14.73;;